createdAt,value
2019-01-13T00:02:11.961Z,99997.00
2019-01-13T00:04:52.696Z,100047.00
2019-01-13T00:07:40.320Z,99979.00
2019-01-13T00:10:20.782Z,99888.00
2019-01-13T00:13:08.444Z,100050.00
2019-01-13T00:15:36.427Z,100013.00
2019-01-13T00:18:17.639Z,99755.00
2019-01-13T00:20:46.583Z,100017.00
2019-01-13T00:23:27.517Z,100018.00
2019-01-13T00:26:14.986Z,99849.00
2019-01-13T00:28:56.000Z,100024.00
2019-01-13T00:31:36.636Z,99865.00
2019-01-13T00:34:25.274Z,100031.00
2019-01-13T00:37:06.028Z,100018.00
2019-01-13T00:39:53.387Z,100027.00
2019-01-13T00:42:21.376Z,100034.00
2019-01-13T00:44:49.308Z,100041.00
2019-01-13T00:47:30.653Z,100039.00
2019-01-13T00:49:58.537Z,100038.00
2019-01-13T00:52:27.636Z,100036.00
2019-01-13T00:54:55.496Z,100038.00
2019-01-13T00:57:37.181Z,99772.00
2019-01-13T01:00:26.803Z,100049.00
2019-01-13T01:03:13.585Z,100053.00
2019-01-13T01:06:01.155Z,100059.00
2019-01-13T01:08:42.553Z,100059.00
2019-01-13T01:11:22.649Z,100052.00
2019-01-13T01:14:02.866Z,100061.00
2019-01-13T01:16:50.402Z,99894.00
2019-01-13T01:19:31.426Z,99808.00
2019-01-13T01:22:19.010Z,99925.00
2019-01-13T01:25:00.204Z,100106.00
2019-01-13T01:27:47.635Z,100042.00
2019-01-13T01:30:33.498Z,100055.00
2019-01-13T01:33:10.124Z,99913.00
2019-01-13T01:35:57.602Z,100018.00
2019-01-13T01:38:38.123Z,99897.00
2019-01-13T01:41:25.565Z,100147.00
2019-01-13T01:44:05.616Z,99927.00
2019-01-13T01:46:46.409Z,100098.00
2019-01-13T01:49:26.561Z,100019.00
2019-01-13T01:52:14.216Z,100127.00
2019-01-13T01:54:55.013Z,100058.00
2019-01-13T01:57:42.465Z,99835.00
2019-01-13T02:00:25.347Z,100044.00
2019-01-13T02:03:12.692Z,99959.00
2019-01-13T02:05:40.605Z,100035.00
2019-01-13T02:08:08.442Z,100042.00
2019-01-13T02:10:36.327Z,100048.00
2019-01-13T02:13:04.211Z,100049.00
2019-01-13T02:15:42.810Z,100047.00
2019-01-13T02:18:30.374Z,99939.00
2019-01-13T02:21:11.318Z,99837.00
2019-01-13T02:23:52.494Z,99801.00
2019-01-13T02:26:39.871Z,99924.00
2019-01-13T02:29:20.113Z,99840.00
2019-01-13T02:32:00.103Z,100116.00
2019-01-13T02:34:47.509Z,100043.00
2019-01-13T02:37:28.276Z,100055.00
2019-01-13T02:40:17.273Z,100036.00
2019-01-13T02:43:04.755Z,100042.00
2019-01-13T02:45:52.201Z,99793.00
2019-01-13T02:48:33.151Z,99951.00
2019-01-13T02:51:20.615Z,99853.00
2019-01-13T02:54:01.379Z,100118.00
2019-01-13T02:56:49.006Z,99947.00
2019-01-13T02:59:29.673Z,99878.00
2019-01-13T03:02:17.040Z,100097.00
2019-01-13T03:05:00.849Z,100046.00
2019-01-13T03:07:48.221Z,99745.00
2019-01-13T03:10:28.648Z,100019.00
2019-01-13T03:13:16.034Z,99788.00
2019-01-13T03:15:56.658Z,100014.00
2019-01-13T03:18:44.202Z,100007.00
2019-01-13T03:21:25.000Z,99983.00
2019-01-13T03:24:05.123Z,100014.00
2019-01-13T03:26:52.504Z,99819.00
2019-01-13T03:29:33.380Z,100004.00
2019-01-13T03:32:20.848Z,99996.00
2019-01-13T03:35:01.314Z,100018.00
2019-01-13T03:37:48.751Z,99853.00
2019-01-13T03:40:29.681Z,99862.00
2019-01-13T03:43:17.032Z,99987.00
2019-01-13T03:45:57.554Z,100058.00
2019-01-13T03:48:45.064Z,99853.00
2019-01-13T03:51:25.746Z,99989.00
2019-01-13T03:54:13.086Z,99988.00
2019-01-13T03:56:53.677Z,99991.00
2019-01-13T03:59:21.519Z,99981.00
2019-01-13T04:02:02.544Z,99997.00
2019-01-13T04:04:49.895Z,99990.00
2019-01-13T04:07:17.810Z,99975.00
2019-01-13T04:09:45.632Z,99979.00
2019-01-13T04:12:27.406Z,99991.00
2019-01-13T04:15:39.123Z,99987.00
2019-01-13T04:18:19.668Z,99992.00
2019-01-13T04:20:59.892Z,100011.00
2019-01-13T04:23:48.261Z,99987.00
2019-01-13T04:26:35.606Z,99878.00
2019-01-13T04:29:16.313Z,99981.00
2019-01-13T04:31:44.184Z,99962.00
2019-01-13T04:34:12.025Z,99950.00
2019-01-13T04:36:59.468Z,100053.00
2019-01-13T04:39:40.241Z,99946.00
2019-01-13T04:42:27.682Z,99947.00
2019-01-13T04:45:07.843Z,99866.00
2019-01-13T04:47:55.262Z,99738.00
2019-01-13T04:50:36.014Z,99807.00
2019-01-13T04:53:23.535Z,99811.00
2019-01-13T04:56:03.928Z,99923.00
2019-01-13T04:58:51.227Z,99744.00
2019-01-13T05:01:34.529Z,99757.00
2019-01-13T05:04:20.563Z,99935.00
2019-01-13T05:06:59.092Z,99788.00
2019-01-13T05:09:46.479Z,99884.00
2019-01-13T05:12:27.873Z,99986.00
2019-01-13T05:15:15.294Z,99648.00
2019-01-13T05:17:57.931Z,99877.00
2019-01-13T05:20:45.265Z,99879.00
2019-01-13T05:23:26.202Z,99904.00
2019-01-13T05:26:13.579Z,99879.00
2019-01-13T05:28:54.607Z,99867.00
2019-01-13T05:31:42.159Z,99704.00
2019-01-13T05:34:27.613Z,99868.00
2019-01-13T05:37:07.719Z,99686.00
2019-01-13T05:39:55.108Z,99863.00
2019-01-13T05:42:35.685Z,99861.00
2019-01-13T05:45:23.182Z,99859.00
2019-01-13T05:48:03.648Z,99701.00
2019-01-13T05:50:51.113Z,99628.00
2019-01-13T05:53:38.462Z,99848.00
2019-01-13T05:56:18.620Z,99912.00
2019-01-13T05:59:06.011Z,99712.00
2019-01-13T06:01:49.291Z,99841.00
2019-01-13T06:04:36.033Z,99624.00
2019-01-13T06:07:16.911Z,99824.00
2019-01-13T06:10:05.535Z,99818.00
2019-01-13T06:12:46.273Z,99818.00
2019-01-13T06:15:33.771Z,99572.00
2019-01-13T06:18:14.581Z,99687.00
2019-01-13T06:21:01.935Z,99570.00
2019-01-13T06:23:42.939Z,99780.00
2019-01-13T06:26:30.246Z,99773.00
2019-01-13T06:29:10.798Z,99520.00
2019-01-13T06:31:58.145Z,99768.00
2019-01-13T06:34:38.997Z,99565.00
2019-01-13T06:37:26.412Z,99779.00
2019-01-13T06:40:08.352Z,99780.00
2019-01-13T06:42:55.750Z,99653.00
2019-01-13T06:45:36.009Z,99885.00
2019-01-13T06:48:23.434Z,99569.00
2019-01-13T06:51:04.184Z,99791.00
2019-01-13T06:53:51.596Z,99774.00
2019-01-13T06:56:33.223Z,99609.00
2019-01-13T06:59:20.619Z,99515.00
2019-01-13T07:01:48.533Z,99784.00
2019-01-13T07:04:16.452Z,99781.00
2019-01-13T07:06:44.329Z,99774.00
2019-01-13T07:09:12.137Z,99780.00
2019-01-13T07:11:52.286Z,99622.00
2019-01-13T07:14:32.457Z,99770.00
2019-01-13T07:17:12.556Z,99535.00
2019-01-13T07:19:59.973Z,99776.00
2019-01-13T07:22:40.793Z,99788.00
2019-01-13T07:25:28.112Z,99787.00
2019-01-13T07:28:09.122Z,99617.00
2019-01-13T07:30:56.551Z,99842.00
2019-01-13T07:33:24.460Z,99790.00
2019-01-13T07:35:52.437Z,99786.00
2019-01-13T07:38:32.864Z,99572.00
2019-01-13T07:41:01.136Z,99778.00
2019-01-13T07:43:43.177Z,99784.00
2019-01-13T07:46:30.695Z,99574.00
2019-01-13T07:49:11.567Z,99705.00
2019-01-13T07:51:52.740Z,99758.00
2019-01-13T07:54:33.499Z,99755.00
2019-01-13T07:57:21.039Z,99821.00
2019-01-13T08:00:03.503Z,99744.00
2019-01-13T08:02:45.439Z,99732.00
2019-01-13T08:05:13.258Z,99729.00
2019-01-13T08:08:00.864Z,99735.00
2019-01-13T08:10:28.917Z,99737.00
2019-01-13T08:12:56.883Z,99730.00
2019-01-13T08:15:24.828Z,99726.00
2019-01-13T08:18:12.358Z,99825.00
2019-01-13T08:20:55.211Z,99729.00
2019-01-13T08:23:42.750Z,99728.00
2019-01-13T08:26:10.745Z,99719.00
2019-01-13T08:28:58.565Z,99733.00
2019-01-13T08:31:39.485Z,99567.00
2019-01-13T08:34:07.504Z,99718.00
2019-01-13T08:36:49.009Z,99709.00
2019-01-13T08:39:36.679Z,99706.00
2019-01-13T08:42:17.630Z,99403.00
2019-01-13T08:45:05.935Z,99696.00
2019-01-13T08:47:47.853Z,99686.00
2019-01-13T08:50:35.268Z,99418.00
2019-01-13T08:53:15.461Z,99665.00
2019-01-13T08:56:03.756Z,99677.00
2019-01-13T08:58:45.347Z,99466.00
2019-01-13T09:01:32.945Z,99664.00
2019-01-13T09:04:13.488Z,99395.00
2019-01-13T09:06:41.438Z,99651.00
2019-01-13T09:09:09.803Z,99647.00
2019-01-13T09:11:37.789Z,99631.00
2019-01-13T09:14:05.836Z,99632.00
2019-01-13T09:16:34.405Z,99621.00
2019-01-13T09:19:02.306Z,99615.00
2019-01-13T09:21:49.933Z,99661.00
2019-01-13T09:24:30.575Z,99351.00
2019-01-13T09:27:18.252Z,99430.00
2019-01-13T09:29:58.460Z,99613.00
2019-01-13T09:32:45.972Z,99600.00
2019-01-13T09:35:27.048Z,99481.00
2019-01-13T09:38:15.139Z,99589.00
2019-01-13T09:40:55.311Z,99569.00
2019-01-13T09:43:42.775Z,99447.00
2019-01-13T09:46:23.556Z,99393.00
2019-01-13T09:49:11.486Z,99400.00
2019-01-13T09:51:51.663Z,99376.00
2019-01-13T09:54:39.306Z,99578.00
2019-01-13T09:57:19.988Z,99583.00
2019-01-13T09:59:47.887Z,99564.00
2019-01-13T10:02:29.018Z,99296.00
2019-01-13T10:05:16.451Z,99382.00
2019-01-13T10:07:56.989Z,99443.00
2019-01-13T10:10:38.035Z,99550.00
2019-01-13T10:13:25.467Z,99458.00
2019-01-13T10:16:06.239Z,99571.00
2019-01-13T10:18:47.301Z,99405.00
2019-01-13T10:21:34.910Z,99276.00
2019-01-13T10:24:15.780Z,99325.00
2019-01-13T10:26:43.968Z,99517.00
2019-01-13T10:29:24.515Z,99353.00
2019-01-13T10:32:05.616Z,99517.00
2019-01-13T10:34:53.024Z,99517.00
2019-01-13T10:37:21.255Z,99495.00
2019-01-13T10:39:49.599Z,99483.00
2019-01-13T10:42:17.586Z,99469.00
2019-01-13T10:44:45.875Z,99469.00
2019-01-13T10:47:14.289Z,99452.00
2019-01-13T10:49:55.253Z,99220.00
2019-01-13T10:52:43.927Z,99258.00
2019-01-13T10:55:26.791Z,99294.00
2019-01-13T10:57:54.858Z,99435.00
2019-01-13T11:00:44.735Z,99423.00
2019-01-13T11:03:33.922Z,99433.00
2019-01-13T11:06:15.202Z,99423.00
2019-01-13T11:09:25.679Z,99505.00
2019-01-13T11:12:06.154Z,99243.00
2019-01-13T11:14:53.779Z,99403.00
2019-01-13T11:17:34.248Z,99405.00
2019-01-13T11:20:24.491Z,99399.00
2019-01-13T11:23:05.438Z,99373.00
2019-01-13T11:25:47.367Z,99380.00
2019-01-13T11:28:32.505Z,99197.00
2019-01-13T11:31:14.737Z,99394.00
2019-01-13T11:34:02.248Z,99382.00
2019-01-13T11:36:46.839Z,99380.00
2019-01-13T11:39:34.586Z,99321.00
2019-01-13T11:42:21.550Z,99370.00
2019-01-13T11:45:04.530Z,99342.00
2019-01-13T11:47:52.157Z,99201.00
2019-01-13T11:50:32.593Z,99118.00
2019-01-13T11:53:00.621Z,99318.00
2019-01-13T11:55:28.961Z,99307.00
2019-01-13T11:57:57.473Z,99294.00
2019-01-13T12:00:40.481Z,99172.00
2019-01-13T12:03:16.475Z,99295.00
2019-01-13T12:05:40.776Z,99287.00
2019-01-13T12:08:08.887Z,99270.00
2019-01-13T12:10:37.281Z,99250.00
2019-01-13T12:13:24.830Z,99034.00
2019-01-13T12:15:52.881Z,99267.00
2019-01-13T12:18:20.963Z,99269.00
2019-01-13T12:20:49.161Z,99278.00
2019-01-13T12:23:17.270Z,99260.00
2019-01-13T12:25:52.333Z,99250.00
2019-01-13T12:28:15.802Z,99259.00
2019-01-13T12:30:56.612Z,99008.00
2019-01-13T12:33:24.935Z,99270.00
2019-01-13T12:36:05.315Z,99139.00
2019-01-13T12:38:52.750Z,99258.00
2019-01-13T12:41:33.267Z,99252.00
2019-01-13T12:44:20.729Z,99120.00
2019-01-13T12:47:01.554Z,99018.00
2019-01-13T12:49:49.224Z,99228.00
2019-01-13T12:52:29.523Z,98996.00
2019-01-13T12:55:17.086Z,99299.00
2019-01-13T12:57:57.724Z,99341.00
2019-01-13T13:00:45.283Z,99275.00
2019-01-13T13:03:24.142Z,99230.00
2019-01-13T13:06:12.167Z,99214.00
2019-01-13T13:08:53.080Z,99030.00
2019-01-13T13:11:21.219Z,99209.00
2019-01-13T13:13:49.365Z,99223.00
2019-01-13T13:16:36.915Z,99025.00
2019-01-13T13:19:17.892Z,99199.00
2019-01-13T13:22:05.360Z,99003.00
2019-01-13T13:24:45.663Z,99192.00
2019-01-13T13:27:33.316Z,99234.00
2019-01-13T13:30:15.366Z,99181.00
2019-01-13T13:33:02.829Z,98997.00
2019-01-13T13:35:43.660Z,99172.00
2019-01-13T13:38:31.656Z,99103.00
2019-01-13T13:41:10.289Z,99146.00
2019-01-13T13:44:01.657Z,98935.00
2019-01-13T13:46:42.030Z,99140.00
2019-01-13T13:49:29.496Z,99150.00
2019-01-13T13:51:57.560Z,99144.00
2019-01-13T13:54:45.086Z,98990.00
2019-01-13T13:57:25.586Z,99221.00
2019-01-13T14:00:34.846Z,99135.00
2019-01-13T14:03:16.912Z,99059.00
2019-01-13T14:06:04.496Z,99186.00
2019-01-13T14:08:45.308Z,99066.00
2019-01-13T14:11:26.109Z,99168.00
2019-01-13T14:14:06.204Z,99122.00
2019-01-13T14:16:53.671Z,98932.00
2019-01-13T14:19:35.006Z,98946.00
2019-01-13T14:22:22.536Z,99049.00
2019-01-13T14:25:03.768Z,99120.00
2019-01-13T14:27:51.306Z,99123.00
2019-01-13T14:30:23.534Z,99122.00
2019-01-13T14:32:51.869Z,99119.00
2019-01-13T14:35:20.150Z,99123.00
2019-01-13T14:38:09.713Z,99126.00
2019-01-13T14:40:50.288Z,98951.00
2019-01-13T14:43:38.114Z,99127.00
2019-01-13T14:46:18.316Z,99104.00
2019-01-13T14:48:59.344Z,99164.00
2019-01-13T14:51:47.040Z,99116.00
2019-01-13T14:54:27.563Z,98872.00
2019-01-13T14:56:55.543Z,99069.00
2019-01-13T14:59:35.661Z,98906.00
2019-01-13T15:02:23.160Z,99060.00
2019-01-13T15:05:04.293Z,98932.00
2019-01-13T15:07:32.391Z,99031.00
2019-01-13T15:10:00.883Z,99025.00
2019-01-13T15:12:28.955Z,99030.00
2019-01-13T15:14:56.993Z,99030.00
2019-01-13T15:17:25.088Z,99027.00
2019-01-13T15:19:53.071Z,99026.00
2019-01-13T15:22:21.194Z,99024.00
2019-01-13T15:24:49.261Z,99020.00
2019-01-13T15:27:17.366Z,99018.00
2019-01-13T15:29:45.580Z,99011.00
2019-01-13T15:32:13.795Z,99004.00
2019-01-13T15:34:41.875Z,99016.00
2019-01-13T15:37:10.068Z,99018.00
2019-01-13T15:39:38.268Z,99008.00
2019-01-13T15:42:06.566Z,99011.00
2019-01-13T15:44:34.617Z,98999.00
2019-01-13T15:47:02.679Z,99010.00
2019-01-13T15:49:31.012Z,99019.00
2019-01-13T15:52:02.055Z,98987.00
2019-01-13T15:54:30.398Z,98988.00
2019-01-13T15:56:59.961Z,98987.00
2019-01-13T15:59:28.156Z,98980.00
2019-01-13T16:01:56.360Z,98969.00
2019-01-13T16:04:24.503Z,98971.00
2019-01-13T16:06:52.650Z,98984.00
2019-01-13T16:09:20.732Z,98978.00
2019-01-13T16:11:48.776Z,98984.00
2019-01-13T16:14:16.825Z,98963.00
2019-01-13T16:16:44.979Z,98974.00
2019-01-13T16:19:13.172Z,98973.00
2019-01-13T16:21:41.324Z,98958.00
2019-01-13T16:24:09.455Z,98959.00
2019-01-13T16:26:37.546Z,98968.00
2019-01-13T16:29:05.807Z,98952.00
2019-01-13T16:31:34.158Z,98950.00
2019-01-13T16:34:02.114Z,98942.00
2019-01-13T16:36:30.431Z,98938.00
2019-01-13T16:38:58.631Z,98941.00
2019-01-13T16:41:26.749Z,98953.00
2019-01-13T16:43:54.835Z,98954.00
2019-01-13T16:46:23.834Z,98957.00
2019-01-13T16:48:52.004Z,98956.00
2019-01-13T16:51:20.163Z,98949.00
2019-01-13T16:53:48.296Z,98948.00
2019-01-13T16:56:16.415Z,98948.00
2019-01-13T16:58:44.592Z,98942.00
2019-01-13T17:01:13.084Z,98943.00
2019-01-13T17:03:41.174Z,98944.00
2019-01-13T17:06:09.588Z,98943.00
2019-01-13T17:08:37.656Z,98942.00
2019-01-13T17:11:05.721Z,98931.00
2019-01-13T17:13:33.863Z,98934.00
2019-01-13T17:16:02.050Z,98927.00
2019-01-13T17:18:30.237Z,98918.00
2019-01-13T17:20:58.286Z,98920.00
2019-01-13T17:23:26.353Z,98916.00
2019-01-13T17:25:54.439Z,98923.00
2019-01-13T17:28:22.402Z,98921.00
2019-01-13T17:30:50.630Z,98922.00
2019-01-13T17:33:18.671Z,98904.00
2019-01-13T17:35:46.731Z,98906.00
2019-01-13T17:38:14.797Z,98898.00
2019-01-13T17:40:42.879Z,98891.00
2019-01-13T17:43:11.136Z,98901.00
2019-01-13T17:45:39.146Z,98892.00
2019-01-13T17:48:08.394Z,98894.00
2019-01-13T17:50:36.582Z,98890.00
2019-01-13T17:53:07.516Z,98888.00
2019-01-13T17:55:35.545Z,98875.00
2019-01-13T17:58:03.517Z,98886.00
2019-01-13T18:00:58.875Z,98876.00
2019-01-13T18:03:39.193Z,98886.00
2019-01-13T18:06:07.303Z,98891.00
2019-01-13T18:08:35.421Z,98893.00
2019-01-13T18:11:03.778Z,98899.00
2019-01-13T18:13:32.006Z,98892.00
2019-01-13T18:16:00.200Z,98896.00
2019-01-13T18:18:28.246Z,98901.00
2019-01-13T18:20:56.416Z,98899.00
2019-01-13T18:23:27.326Z,98904.00
2019-01-13T18:25:55.516Z,98895.00
2019-01-13T18:28:23.947Z,98888.00
2019-01-13T18:30:52.256Z,98905.00
2019-01-13T18:33:21.448Z,98905.00
2019-01-13T18:35:49.554Z,98887.00
2019-01-13T18:38:17.670Z,98886.00
2019-01-13T18:40:45.718Z,98893.00
2019-01-13T18:43:13.878Z,98895.00
2019-01-13T18:45:42.002Z,98890.00
2019-01-13T18:48:10.344Z,98887.00
2019-01-13T18:50:38.714Z,98879.00
2019-01-13T18:53:10.964Z,98882.00
2019-01-13T18:55:39.151Z,98892.00
2019-01-13T18:58:07.463Z,98875.00
2019-01-13T19:00:35.817Z,98873.00
2019-01-13T19:03:04.969Z,98886.00
2019-01-13T19:05:33.187Z,98880.00
2019-01-13T19:08:01.447Z,98869.00
2019-01-13T19:10:41.716Z,98831.00
2019-01-13T19:13:17.428Z,98841.00
2019-01-13T19:15:47.696Z,98844.00
2019-01-13T19:18:15.819Z,98863.00
2019-01-13T19:20:43.982Z,98863.00
2019-01-13T19:23:16.551Z,98864.00
2019-01-13T19:25:44.803Z,98858.00
2019-01-13T19:28:13.034Z,98868.00
2019-01-13T19:30:41.115Z,98851.00
2019-01-13T19:33:11.129Z,98857.00
2019-01-13T19:35:39.384Z,98862.00
2019-01-13T19:38:07.558Z,98856.00
2019-01-13T19:40:35.792Z,98866.00
2019-01-13T19:43:04.165Z,98867.00
2019-01-13T19:45:32.660Z,98871.00
2019-01-13T19:48:01.125Z,98885.00
2019-01-13T19:50:29.404Z,98891.00
2019-01-13T19:52:57.711Z,98882.00
2019-01-13T19:55:25.987Z,98893.00
2019-01-13T19:57:54.091Z,98896.00
2019-01-13T20:00:29.325Z,98915.00
2019-01-13T20:02:57.369Z,98912.00
2019-01-13T20:05:25.705Z,98903.00
2019-01-13T20:07:53.866Z,98890.00
2019-01-13T20:10:22.213Z,98895.00
2019-01-13T20:12:50.399Z,98878.00
2019-01-13T20:15:18.757Z,98882.00
2019-01-13T20:17:46.904Z,98861.00
2019-01-13T20:20:15.316Z,98876.00
2019-01-13T20:22:44.517Z,98883.00
2019-01-13T20:25:12.792Z,98890.00
2019-01-13T20:27:41.122Z,98887.00
2019-01-13T20:30:15.947Z,98882.00
2019-01-13T20:32:44.425Z,98872.00
2019-01-13T20:35:19.191Z,98889.00
2019-01-13T20:37:43.026Z,98884.00
2019-01-13T20:40:12.108Z,98865.00
2019-01-13T20:42:40.329Z,98887.00
2019-01-13T20:45:13.624Z,98903.00
2019-01-13T20:47:41.646Z,98929.00
2019-01-13T20:50:11.977Z,98958.00
2019-01-13T20:52:41.219Z,98936.00
2019-01-13T20:55:10.755Z,98958.00
2019-01-13T20:57:38.953Z,98994.00
2019-01-13T21:00:14.581Z,98974.00
2019-01-13T21:02:42.859Z,98967.00
2019-01-13T21:05:11.234Z,98969.00
2019-01-13T21:07:39.333Z,98960.00
2019-01-13T21:10:09.907Z,98941.00
2019-01-13T21:12:38.085Z,98947.00
2019-01-13T21:15:09.574Z,98953.00
2019-01-13T21:17:37.958Z,98938.00
2019-01-13T21:20:06.240Z,98945.00
2019-01-13T21:22:34.352Z,98949.00
2019-01-13T21:25:02.382Z,98955.00
2019-01-13T21:27:30.964Z,98956.00
2019-01-13T21:30:01.717Z,98952.00
2019-01-13T21:32:29.031Z,98958.00
2019-01-13T21:34:57.353Z,98951.00
2019-01-13T21:37:25.727Z,98965.00
2019-01-13T21:39:53.936Z,98957.00
2019-01-13T21:42:21.995Z,98968.00
2019-01-13T21:44:50.131Z,98975.00
2019-01-13T21:47:18.312Z,98974.00
2019-01-13T21:49:46.443Z,98984.00
2019-01-13T21:52:14.493Z,98987.00
2019-01-13T21:54:42.719Z,98975.00
2019-01-13T21:57:10.866Z,98980.00
2019-01-13T21:59:38.899Z,98988.00
2019-01-13T22:02:08.129Z,98992.00
2019-01-13T22:04:36.200Z,99000.00
2019-01-13T22:07:04.818Z,99004.00
2019-01-13T22:09:32.936Z,99004.00
2019-01-13T22:12:00.943Z,98981.00
2019-01-13T22:14:28.979Z,99005.00
2019-01-13T22:16:57.092Z,98988.00
2019-01-13T22:19:25.116Z,98978.00
2019-01-13T22:21:53.227Z,98988.00
2019-01-13T22:24:21.600Z,98991.00
2019-01-13T22:26:49.946Z,98977.00
2019-01-13T22:29:18.049Z,98997.00
2019-01-13T22:31:46.185Z,99003.00
2019-01-13T22:34:14.172Z,98984.00
2019-01-13T22:36:42.215Z,99005.00
2019-01-13T22:39:10.316Z,98983.00
2019-01-13T22:41:38.325Z,98986.00
2019-01-13T22:44:06.354Z,98997.00
2019-01-13T22:46:34.417Z,99006.00
2019-01-13T22:49:02.849Z,98995.00
2019-01-13T22:51:30.855Z,99012.00
2019-01-13T22:53:59.101Z,99012.00
2019-01-13T22:56:27.049Z,99004.00
2019-01-13T22:58:55.095Z,98989.00
2019-01-13T23:01:34.172Z,99000.00
2019-01-13T23:04:17.060Z,99014.00
2019-01-13T23:06:45.157Z,98999.00
2019-01-13T23:09:13.165Z,99009.00
2019-01-13T23:11:41.115Z,98996.00
2019-01-13T23:14:12.181Z,98992.00
2019-01-13T23:16:40.401Z,99016.00
2019-01-13T23:19:08.631Z,99022.00
2019-01-13T23:21:36.589Z,99025.00
2019-01-13T23:24:04.630Z,99028.00
2019-01-13T23:26:32.705Z,99032.00
2019-01-13T23:29:00.825Z,99050.00
2019-01-13T23:31:28.922Z,99047.00
2019-01-13T23:33:56.900Z,99050.00
2019-01-13T23:36:24.813Z,99050.00
2019-01-13T23:38:52.781Z,99059.00
2019-01-13T23:41:20.852Z,99070.00
2019-01-13T23:43:48.823Z,99079.00
2019-01-13T23:46:16.754Z,99076.00
2019-01-13T23:48:44.734Z,99075.00
2019-01-13T23:51:12.807Z,99073.00
2019-01-13T23:53:40.732Z,99075.00
2019-01-13T23:56:08.644Z,99081.00
2019-01-13T23:58:36.670Z,99088.00
